Time,TemperatureF,DewpointF,PressureIn,WindDirection,WindDirectionDegrees,WindSpeedMPH,WindSpeedGustMPH,Humidity,HourlyPrecipIn,Conditions,Clouds,dailyrainin,SoftwareType,DateUTC
2013-05-17 00:10:00,71.7,65.0,30.08,SSE,149,2.0,-999.0,78,-99.99,,,0.00,weatherlink.com 1.10,2013-05-17 04:10:00,
2013-05-17 00:25:00,71.5,64.0,30.08,SSE,150,2.0,-999.0,78,-99.99,,,0.00,weatherlink.com 1.10,2013-05-17 04:25:00,
2013-05-17 00:40:00,71.2,64.0,30.07,SSE,150,2.0,-999.0,79,-99.99,,,0.00,weatherlink.com 1.10,2013-05-17 04:40:00,
2013-05-17 00:55:00,71.1,64.0,30.07,SSE,150,1.0,-999.0,79,-99.99,,,0.00,weatherlink.com 1.10,2013-05-17 04:55:00,
2013-05-17 01:10:00,70.9,64.0,30.06,SSE,159,3.0,-999.0,79,-99.99,,,0.00,weatherlink.com 1.10,2013-05-17 05:10:00,
2013-05-17 01:25:00,70.9,64.0,30.05,SSE,157,0.0,-999.0,79,-99.99,,,0.00,weatherlink.com 1.10,2013-05-17 05:25:00,
2013-05-17 01:40:00,70.9,64.0,30.05,SSE,157,0.0,-999.0,78,-99.99,,,0.00,weatherlink.com 1.10,2013-05-17 05:40:00,
2013-05-17 01:56:00,70.9,64.0,30.05,SSE,159,1.0,-999.0,78,-99.99,,,0.00,weatherlink.com 1.10,2013-05-17 05:56:00,
2013-05-17 02:10:00,70.8,64.0,30.05,SSE,159,0.0,-999.0,78,-99.99,,,0.00,weatherlink.com 1.10,2013-05-17 06:10:00,
2013-05-17 02:25:00,70.6,64.0,30.05,SSE,159,0.0,-999.0,79,-99.99,,,0.00,weatherlink.com 1.10,2013-05-17 06:25:00,
2013-05-17 02:40:00,70.4,64.0,30.05,SSE,157,0.0,-999.0,79,-99.99,,,0.00,weatherlink.com 1.10,2013-05-17 06:40:00,
2013-05-17 02:55:00,70.1,64.0,30.04,SSE,157,0.0,-999.0,80,-99.99,,,0.00,weatherlink.com 1.10,2013-05-17 06:55:00,
2013-05-17 03:10:00,69.8,64.0,30.04,SSE,157,0.0,-999.0,81,-99.99,,,0.00,weatherlink.com 1.10,2013-05-17 07:10:00,
2013-05-17 03:25:00,69.6,64.0,30.04,SSE,157,0.0,-999.0,82,-99.99,,,0.00,weatherlink.com 1.10,2013-05-17 07:25:00,
2013-05-17 03:40:00,69.5,64.0,30.03,SSE,157,0.0,-999.0,82,-99.99,,,0.00,weatherlink.com 1.10,2013-05-17 07:40:00,
2013-05-17 03:55:00,69.2,64.0,30.03,SSE,157,0.0,-999.0,83,-99.99,,,0.00,weatherlink.com 1.10,2013-05-17 07:55:00,
2013-05-17 04:10:00,68.9,64.0,30.04,SSE,157,0.0,-999.0,83,-99.99,,,0.00,weatherlink.com 1.10,2013-05-17 08:10:00,
2013-05-17 04:25:00,68.5,64.0,30.05,SSE,157,0.0,-999.0,85,-99.99,,,0.00,weatherlink.com 1.10,2013-05-17 08:25:00,
2013-05-17 04:40:00,68.8,64.0,30.05,SSE,157,0.0,-999.0,85,-99.99,,,0.00,weatherlink.com 1.10,2013-05-17 08:40:00,
2013-05-17 04:55:00,68.5,64.0,30.05,SSE,157,0.0,-999.0,86,-99.99,,,0.00,weatherlink.com 1.10,2013-05-17 08:55:00,
2013-05-17 05:10:00,68.1,64.0,30.05,SSE,157,0.0,-999.0,87,-99.99,,,0.00,weatherlink.com 1.10,2013-05-17 09:10:00,
2013-05-17 05:25:00,67.9,64.0,30.05,SSE,157,0.0,-999.0,88,-99.99,,,0.00,weatherlink.com 1.10,2013-05-17 09:25:00,
2013-05-17 05:40:00,67.6,64.0,30.06,SSE,157,0.0,-999.0,89,-99.99,,,0.00,weatherlink.com 1.10,2013-05-17 09:40:00,
2013-05-17 05:55:00,67.4,64.0,30.06,SSE,157,0.0,-999.0,89,-99.99,,,0.00,weatherlink.com 1.10,2013-05-17 09:55:00,
2013-05-17 06:10:00,67.4,64.0,30.06,SSE,157,0.0,-999.0,89,-99.99,,,0.00,weatherlink.com 1.10,2013-05-17 10:10:00,
2013-05-17 06:25:00,67.2,64.0,30.06,SSE,157,0.0,-999.0,89,-99.99,,,0.00,weatherlink.com 1.10,2013-05-17 10:25:00,
2013-05-17 06:40:00,67.0,64.0,30.07,SSE,157,0.0,-999.0,90,-99.99,,,0.00,weatherlink.com 1.10,2013-05-17 10:40:00,
2013-05-17 06:55:00,67.0,64.0,30.08,SSE,157,0.0,-999.0,90,-99.99,,,0.00,weatherlink.com 1.10,2013-05-17 10:55:00,
2013-05-17 07:10:00,67.3,64.0,30.08,SSE,157,0.0,-999.0,90,-99.99,,,0.00,weatherlink.com 1.10,2013-05-17 11:10:00,
2013-05-17 07:25:00,68.5,66.0,30.09,SSE,157,0.0,-999.0,90,-99.99,,,0.00,weatherlink.com 1.10,2013-05-17 11:25:00,
2013-05-17 07:40:00,69.3,65.0,30.09,SSE,157,0.0,-999.0,87,-99.99,,,0.00,weatherlink.com 1.10,2013-05-17 11:40:00,
2013-05-17 07:55:00,70.4,66.0,30.09,SSE,157,0.0,-999.0,85,-99.99,,,0.00,weatherlink.com 1.10,2013-05-17 11:55:00,
2013-05-17 08:10:00,71.5,66.0,30.09,SSE,157,0.0,-999.0,83,-99.99,,,0.00,weatherlink.com 1.10,2013-05-17 12:10:00,
2013-05-17 08:25:00,72.5,66.0,30.09,SE,133,1.0,-999.0,81,-99.99,,,0.00,weatherlink.com 1.10,2013-05-17 12:25:00,
2013-05-17 08:40:00,73.7,67.0,30.09,SE,131,2.0,-999.0,79,-99.99,,,0.00,weatherlink.com 1.10,2013-05-17 12:40:00,
2013-05-17 08:55:00,74.7,67.0,30.09,SE,130,5.0,-999.0,76,-99.99,,,0.00,weatherlink.com 1.10,2013-05-17 12:55:00,
2013-05-17 09:10:00,74.9,67.0,30.10,SE,137,1.0,-999.0,75,-99.99,,,0.00,weatherlink.com 1.10,2013-05-17 13:10:00,
2013-05-17 09:25:00,76.2,66.0,30.10,South,178,6.0,-999.0,71,-99.99,,,0.00,weatherlink.com 1.10,2013-05-17 13:25:00,
2013-05-17 09:40:00,76.8,66.0,30.10,SE,144,2.0,-999.0,69,-99.99,,,0.00,weatherlink.com 1.10,2013-05-17 13:40:00,
2013-05-17 09:55:00,77.7,65.0,30.10,South,183,5.0,-999.0,66,-99.99,,,0.00,weatherlink.com 1.10,2013-05-17 13:55:00,
2013-05-17 10:10:00,78.0,65.0,30.10,SE,139,6.0,-999.0,64,-99.99,,,0.00,weatherlink.com 1.10,2013-05-17 14:10:00,
2013-05-17 10:25:00,78.0,65.0,30.10,South,182,4.0,-999.0,64,-99.99,,,0.00,weatherlink.com 1.10,2013-05-17 14:25:00,
2013-05-17 10:40:00,78.6,65.0,30.11,SSW,203,4.0,-999.0,63,-99.99,,,0.00,weatherlink.com 1.10,2013-05-17 14:40:00,
2013-05-17 10:55:00,79.6,64.0,30.11,SW,217,0.0,-999.0,59,-99.99,,,0.00,weatherlink.com 1.10,2013-05-17 14:55:00,
2013-05-17 11:10:00,80.3,62.0,30.11,SSE,157,2.0,-999.0,54,-99.99,,,0.00,weatherlink.com 1.10,2013-05-17 15:10:00,
2013-05-17 11:25:00,81.2,64.0,30.11,NNW,329,4.0,-999.0,56,-99.99,,,0.00,weatherlink.com 1.10,2013-05-17 15:25:00,
2013-05-17 11:40:00,81.8,63.0,30.10,SSE,148,2.0,-999.0,54,-99.99,,,0.00,weatherlink.com 1.10,2013-05-17 15:40:00,
2013-05-17 11:55:00,81.6,64.0,30.10,WSW,246,0.0,-999.0,55,-99.99,,,0.00,weatherlink.com 1.10,2013-05-17 15:55:00,
2013-05-17 12:10:00,81.8,64.0,30.10,South,190,1.0,-999.0,55,-99.99,,,0.00,weatherlink.com 1.10,2013-05-17 16:10:00,
2013-05-17 12:25:00,81.6,64.0,30.10,SSW,196,2.0,-999.0,55,-99.99,,,0.00,weatherlink.com 1.10,2013-05-17 16:25:00,
2013-05-17 12:40:00,83.8,65.0,30.09,NE,48,0.0,-999.0,53,-99.99,,,0.00,weatherlink.com 1.10,2013-05-17 16:40:00,
2013-05-17 12:55:00,85.0,64.0,30.09,South,186,0.0,-999.0,49,-99.99,,,0.00,weatherlink.com 1.10,2013-05-17 16:55:00,
2013-05-17 13:10:00,84.1,63.0,30.09,SE,140,0.0,-999.0,50,-99.99,,,0.00,weatherlink.com 1.10,2013-05-17 17:10:00,
2013-05-17 13:25:00,84.2,64.0,30.08,SSE,155,0.0,-999.0,51,-99.99,,,0.00,weatherlink.com 1.10,2013-05-17 17:25:00,
2013-05-17 13:40:00,85.3,65.0,30.08,South,174,1.0,-999.0,50,-99.99,,,0.00,weatherlink.com 1.10,2013-05-17 17:40:00,
2013-05-17 13:55:00,85.2,64.0,30.08,SSE,149,0.0,-999.0,49,-99.99,,,0.00,weatherlink.com 1.10,2013-05-17 17:55:00,
2013-05-17 14:10:00,84.6,63.0,30.07,SSW,192,0.0,-999.0,49,-99.99,,,0.00,weatherlink.com 1.10,2013-05-17 18:10:00,
2013-05-17 14:25:00,84.4,64.0,30.07,SSW,207,5.0,-999.0,51,-99.99,,,0.00,weatherlink.com 1.10,2013-05-17 18:25:00,
2013-05-17 14:40:00,86.0,64.0,30.07,ESE,119,2.0,-999.0,48,-99.99,,,0.00,weatherlink.com 1.10,2013-05-17 18:40:00,
2013-05-17 14:55:00,85.3,64.0,30.06,ESE,105,2.0,-999.0,49,-99.99,,,0.00,weatherlink.com 1.10,2013-05-17 18:55:00,
2013-05-17 15:10:00,85.8,64.0,30.06,East,86,0.0,-999.0,48,-99.99,,,0.00,weatherlink.com 1.10,2013-05-17 19:10:00,
2013-05-17 15:25:00,86.2,63.0,30.05,East,82,2.0,-999.0,46,-99.99,,,0.00,weatherlink.com 1.10,2013-05-17 19:25:00,
2013-05-17 15:40:00,87.0,64.0,30.05,NE,34,2.0,-999.0,46,-99.99,,,0.00,weatherlink.com 1.10,2013-05-17 19:40:00,
2013-05-17 15:55:00,86.1,64.0,30.05,ENE,63,4.0,-999.0,47,-99.99,,,0.00,weatherlink.com 1.10,2013-05-17 19:55:00,
2013-05-17 16:10:00,86.1,64.0,30.05,East,90,0.0,-999.0,47,-99.99,,,0.00,weatherlink.com 1.10,2013-05-17 20:10:00,
2013-05-17 16:25:00,86.2,65.0,30.04,East,80,4.0,-999.0,50,-99.99,,,0.00,weatherlink.com 1.10,2013-05-17 20:25:00,
2013-05-17 16:40:00,84.9,67.0,30.04,ENE,67,4.0,-999.0,55,-99.99,,,0.00,weatherlink.com 1.10,2013-05-17 20:40:00,
2013-05-17 16:55:00,84.8,68.0,30.04,East,101,7.0,-999.0,58,-99.99,,,0.00,weatherlink.com 1.10,2013-05-17 20:55:00,
2013-05-17 17:10:00,84.5,69.0,30.04,SE,127,7.0,-999.0,60,-99.99,,,0.00,weatherlink.com 1.10,2013-05-17 21:10:00,
2013-05-17 17:25:00,84.4,68.0,30.05,SE,124,4.0,-999.0,59,-99.99,,,0.00,weatherlink.com 1.10,2013-05-17 21:25:00,
2013-05-17 17:42:00,84.1,68.0,30.05,SE,142,8.0,-999.0,58,-99.99,,,0.00,weatherlink.com 1.10,2013-05-17 21:42:00,
2013-05-17 17:55:00,83.7,68.0,30.05,East,90,9.0,-999.0,59,-99.99,,,0.00,weatherlink.com 1.10,2013-05-17 21:55:00,
2013-05-17 18:10:00,82.6,67.0,30.05,East,101,3.0,-999.0,60,-99.99,,,0.00,weatherlink.com 1.10,2013-05-17 22:10:00,
2013-05-17 18:25:00,82.2,67.0,30.05,ESE,118,6.0,-999.0,60,-99.99,,,0.00,weatherlink.com 1.10,2013-05-17 22:25:00,
2013-05-17 18:40:00,81.8,67.0,30.05,East,88,7.0,-999.0,62,-99.99,,,0.00,weatherlink.com 1.10,2013-05-17 22:40:00,
2013-05-17 18:55:00,81.2,67.0,30.05,East,86,8.0,-999.0,62,-99.99,,,0.00,weatherlink.com 1.10,2013-05-17 22:55:00,
2013-05-17 19:10:00,81.0,68.0,30.05,East,91,2.0,-999.0,64,-99.99,,,0.00,weatherlink.com 1.10,2013-05-17 23:10:00,
2013-05-17 19:25:00,80.6,67.0,30.06,ESE,105,6.0,-999.0,64,-99.99,,,0.00,weatherlink.com 1.10,2013-05-17 23:25:00,
2013-05-17 19:40:00,80.0,68.0,30.06,ESE,103,6.0,-999.0,66,-99.99,,,0.00,weatherlink.com 1.10,2013-05-17 23:40:00,
2013-05-17 19:55:00,79.1,68.0,30.07,East,83,6.0,-999.0,68,-99.99,,,0.00,weatherlink.com 1.10,2013-05-17 23:55:00,
2013-05-17 20:10:00,78.6,68.0,30.07,ESE,107,6.0,-999.0,69,-99.99,,,0.00,weatherlink.com 1.10,2013-05-18 00:10:00,
2013-05-17 20:25:00,78.3,68.0,30.07,ESE,102,4.0,-999.0,71,-99.99,,,0.00,weatherlink.com 1.10,2013-05-18 00:25:00,
2013-05-17 20:40:00,77.7,69.0,30.07,ESE,110,2.0,-999.0,75,-99.99,,,0.00,weatherlink.com 1.10,2013-05-18 00:40:00,
2013-05-17 20:55:00,77.1,69.0,30.08,East,101,4.0,-999.0,77,-99.99,,,0.00,weatherlink.com 1.10,2013-05-18 00:55:00,
2013-05-17 21:10:00,76.7,69.0,30.08,SE,132,1.0,-999.0,78,-99.99,,,0.00,weatherlink.com 1.10,2013-05-18 01:10:00,
2013-05-17 21:25:00,76.4,69.0,30.08,ESE,110,6.0,-999.0,78,-99.99,,,0.00,weatherlink.com 1.10,2013-05-18 01:25:00,
2013-05-17 21:40:00,76.2,69.0,30.08,SSE,164,7.0,-999.0,78,-99.99,,,0.00,weatherlink.com 1.10,2013-05-18 01:40:00,
2013-05-17 21:55:00,75.9,69.0,30.09,East,98,1.0,-999.0,78,-99.99,,,0.00,weatherlink.com 1.10,2013-05-18 01:55:00,
2013-05-17 22:10:00,75.7,69.0,30.09,SE,139,4.0,-999.0,79,-99.99,,,0.00,weatherlink.com 1.10,2013-05-18 02:10:00,
2013-05-17 22:25:00,75.5,69.0,30.10,SE,129,2.0,-999.0,79,-99.99,,,0.00,weatherlink.com 1.10,2013-05-18 02:25:00,
2013-05-17 22:40:00,75.2,68.0,30.10,SSE,167,4.0,-999.0,79,-99.99,,,0.00,weatherlink.com 1.10,2013-05-18 02:40:00,
2013-05-17 22:55:00,75.0,68.0,30.10,SE,145,6.0,-999.0,80,-99.99,,,0.00,weatherlink.com 1.10,2013-05-18 02:55:00,
2013-05-17 23:10:00,74.7,69.0,30.10,SE,146,7.0,-999.0,81,-99.99,,,0.00,weatherlink.com 1.10,2013-05-18 03:10:00,
2013-05-17 23:25:00,74.4,68.0,30.10,SE,137,5.0,-999.0,81,-99.99,,,0.00,weatherlink.com 1.10,2013-05-18 03:25:00,
2013-05-17 23:40:00,74.1,68.0,30.10,SSE,151,2.0,-999.0,82,-99.99,,,0.00,weatherlink.com 1.10,2013-05-18 03:40:00,
2013-05-17 23:55:00,73.9,68.0,30.10,SE,146,5.0,-999.0,82,-99.99,,,0.00,weatherlink.com 1.10,2013-05-18 03:55:00,